sensor_id;sensor_type;location;lat;lon;timestamp;temperature;humidity
38514;DHT22;24282;48.400;10.808;2023-01-01T00:01:10;7.80;86.10
38514;DHT22;24282;48.400;10.808;2023-01-01T00:03:37;7.70;86.30
38514;DHT22;24282;48.400;10.808;2023-01-01T00:06:10;7.80;86.30
38514;DHT22;24282;48.400;10.808;2023-01-01T00:08:36;7.80;86.50
38514;DHT22;24282;48.400;10.808;2023-01-01T00:11:03;7.80;86.40
38514;DHT22;24282;48.400;10.808;2023-01-01T00:13:30;7.80;86.60
38514;DHT22;24282;48.400;10.808;2023-01-01T00:16:02;7.80;86.70
38514;DHT22;24282;48.400;10.808;2023-01-01T00:18:28;7.90;86.60
38514;DHT22;24282;48.400;10.808;2023-01-01T00:21:04;7.90;86.40
38514;DHT22;24282;48.400;10.808;2023-01-01T00:23:30;7.90;86.50
38514;DHT22;24282;48.400;10.808;2023-01-01T00:25:57;7.80;86.40
38514;DHT22;24282;48.400;10.808;2023-01-01T00:28:22;7.80;86.30
38514;DHT22;24282;48.400;10.808;2023-01-01T00:30:48;7.80;86.30
38514;DHT22;24282;48.400;10.808;2023-01-01T00:33:14;7.80;86.40
38514;DHT22;24282;48.400;10.808;2023-01-01T00:35:40;7.80;86.40
38514;DHT22;24282;48.400;10.808;2023-01-01T00:38:06;7.80;86.50
38514;DHT22;24282;48.400;10.808;2023-01-01T00:40:31;7.70;86.50
38514;DHT22;24282;48.400;10.808;2023-01-01T00:42:57;7.80;86.50
38514;DHT22;24282;48.400;10.808;2023-01-01T00:45:23;7.70;86.50
38514;DHT22;24282;48.400;10.808;2023-01-01T00:47:50;7.80;86.30
38514;DHT22;24282;48.400;10.808;2023-01-01T00:50:17;7.70;86.40
38514;DHT22;24282;48.400;10.808;2023-01-01T00:52:43;7.70;86.30
38514;DHT22;24282;48.400;10.808;2023-01-01T00:55:09;7.70;86.30
38514;DHT22;24282;48.400;10.808;2023-01-01T00:57:35;7.70;86.30
38514;DHT22;24282;48.400;10.808;2023-01-01T01:00:02;7.60;86.40
38514;DHT22;24282;48.400;10.808;2023-01-01T01:02:28;7.70;86.40
38514;DHT22;24282;48.400;10.808;2023-01-01T01:04:54;7.70;86.40
38514;DHT22;24282;48.400;10.808;2023-01-01T01:07:20;7.70;86.40
38514;DHT22;24282;48.400;10.808;2023-01-01T01:09:46;7.70;86.40
38514;DHT22;24282;48.400;10.808;2023-01-01T01:12:11;7.70;86.70
38514;DHT22;24282;48.400;10.808;2023-01-01T01:14:37;7.70;86.80
38514;DHT22;24282;48.400;10.808;2023-01-01T01:17:03;7.70;86.80
38514;DHT22;24282;48.400;10.808;2023-01-01T01:19:29;7.70;86.80
38514;DHT22;24282;48.400;10.808;2023-01-01T01:21:54;7.60;86.50
38514;DHT22;24282;48.400;10.808;2023-01-01T01:24:20;7.60;86.20
38514;DHT22;24282;48.400;10.808;2023-01-01T01:26:46;7.60;86.00
38514;DHT22;24282;48.400;10.808;2023-01-01T01:29:11;7.50;85.80
38514;DHT22;24282;48.400;10.808;2023-01-01T01:31:37;7.50;85.80
38514;DHT22;24282;48.400;10.808;2023-01-01T01:34:03;7.50;85.80
38514;DHT22;24282;48.400;10.808;2023-01-01T01:36:29;7.50;85.70
38514;DHT22;24282;48.400;10.808;2023-01-01T01:38:55;7.40;85.70
38514;DHT22;24282;48.400;10.808;2023-01-01T01:41:23;7.40;85.80
38514;DHT22;24282;48.400;10.808;2023-01-01T01:43:55;7.40;85.90
38514;DHT22;24282;48.400;10.808;2023-01-01T01:46:29;7.40;85.90
38514;DHT22;24282;48.400;10.808;2023-01-01T01:49:04;7.40;85.90
38514;DHT22;24282;48.400;10.808;2023-01-01T01:51:36;7.40;85.80
38514;DHT22;24282;48.400;10.808;2023-01-01T01:54:08;7.30;85.90
38514;DHT22;24282;48.400;10.808;2023-01-01T01:57:13;7.30;86.00
38514;DHT22;24282;48.400;10.808;2023-01-01T01:59:42;7.30;86.00
38514;DHT22;24282;48.400;10.808;2023-01-01T02:02:37;7.30;85.90
38514;DHT22;24282;48.400;10.808;2023-01-01T02:05:04;7.30;86.10
38514;DHT22;24282;48.400;10.808;2023-01-01T02:07:31;7.20;86.30
38514;DHT22;24282;48.400;10.808;2023-01-01T02:09:59;7.20;86.30
38514;DHT22;24282;48.400;10.808;2023-01-01T02:12:26;7.20;86.30
38514;DHT22;24282;48.400;10.808;2023-01-01T02:14:52;7.20;86.40
38514;DHT22;24282;48.400;10.808;2023-01-01T02:17:36;7.20;86.40
38514;DHT22;24282;48.400;10.808;2023-01-01T02:26:20;7.20;86.50
38514;DHT22;24282;48.400;10.808;2023-01-01T02:28:59;7.20;86.50
38514;DHT22;24282;48.400;10.808;2023-01-01T02:31:28;7.20;86.60
38514;DHT22;24282;48.400;10.808;2023-01-01T02:33:57;7.20;86.60
38514;DHT22;24282;48.400;10.808;2023-01-01T02:36:25;7.20;86.70
38514;DHT22;24282;48.400;10.808;2023-01-01T02:38:54;7.20;86.80
38514;DHT22;24282;48.400;10.808;2023-01-01T02:43:51;7.20;87.00
38514;DHT22;24282;48.400;10.808;2023-01-01T02:46:17;7.20;87.10
38514;DHT22;24282;48.400;10.808;2023-01-01T02:48:48;7.20;86.80
38514;DHT22;24282;48.400;10.808;2023-01-01T02:56:52;7.20;86.70
38514;DHT22;24282;48.400;10.808;2023-01-01T03:07:13;7.20;86.80
38514;DHT22;24282;48.400;10.808;2023-01-01T03:09:42;7.20;86.90
38514;DHT22;24282;48.400;10.808;2023-01-01T03:12:34;7.10;87.00
38514;DHT22;24282;48.400;10.808;2023-01-01T03:18:06;7.10;87.10
38514;DHT22;24282;48.400;10.808;2023-01-01T03:20:35;7.10;87.20
38514;DHT22;24282;48.400;10.808;2023-01-01T03:23:08;7.10;87.20
38514;DHT22;24282;48.400;10.808;2023-01-01T03:25:41;7.10;87.10
38514;DHT22;24282;48.400;10.808;2023-01-01T03:28:12;7.10;87.10
38514;DHT22;24282;48.400;10.808;2023-01-01T03:30:40;7.10;87.10
38514;DHT22;24282;48.400;10.808;2023-01-01T03:33:22;7.10;86.90
38514;DHT22;24282;48.400;10.808;2023-01-01T03:35:59;7.10;86.70
38514;DHT22;24282;48.400;10.808;2023-01-01T03:38:29;7.10;86.90
38514;DHT22;24282;48.400;10.808;2023-01-01T03:41:02;7.00;86.90
38514;DHT22;24282;48.400;10.808;2023-01-01T03:43:48;7.00;86.80
38514;DHT22;24282;48.400;10.808;2023-01-01T03:46:20;7.00;86.70
38514;DHT22;24282;48.400;10.808;2023-01-01T03:48:48;7.00;86.60
38514;DHT22;24282;48.400;10.808;2023-01-01T03:51:30;7.00;86.40
38514;DHT22;24282;48.400;10.808;2023-01-01T03:54:01;6.90;86.40
38514;DHT22;24282;48.400;10.808;2023-01-01T03:59:10;6.90;86.20
38514;DHT22;24282;48.400;10.808;2023-01-01T04:01:47;6.80;86.30
38514;DHT22;24282;48.400;10.808;2023-01-01T04:04:17;6.90;86.50
38514;DHT22;24282;48.400;10.808;2023-01-01T04:06:44;6.90;86.60
38514;DHT22;24282;48.400;10.808;2023-01-01T04:09:13;6.90;86.90
38514;DHT22;24282;48.400;10.808;2023-01-01T04:11:43;6.90;87.10
38514;DHT22;24282;48.400;10.808;2023-01-01T04:14:40;6.90;87.10
38514;DHT22;24282;48.400;10.808;2023-01-01T04:17:07;6.90;87.10
38514;DHT22;24282;48.400;10.808;2023-01-01T04:19:33;6.90;87.10
38514;DHT22;24282;48.400;10.808;2023-01-01T04:22:00;6.90;87.00
38514;DHT22;24282;48.400;10.808;2023-01-01T04:24:26;6.90;86.80
38514;DHT22;24282;48.400;10.808;2023-01-01T04:26:53;6.90;86.50
38514;DHT22;24282;48.400;10.808;2023-01-01T04:29:19;6.80;86.20
38514;DHT22;24282;48.400;10.808;2023-01-01T04:31:45;6.80;85.90
38514;DHT22;24282;48.400;10.808;2023-01-01T04:34:11;6.70;85.50
38514;DHT22;24282;48.400;10.808;2023-01-01T04:36:37;6.70;85.60
38514;DHT22;24282;48.400;10.808;2023-01-01T04:39:04;6.70;85.50
38514;DHT22;24282;48.400;10.808;2023-01-01T04:41:30;6.60;85.60
38514;DHT22;24282;48.400;10.808;2023-01-01T04:43:55;6.50;85.60
38514;DHT22;24282;48.400;10.808;2023-01-01T04:46:22;6.50;85.70
38514;DHT22;24282;48.400;10.808;2023-01-01T04:48:49;6.50;85.80
38514;DHT22;24282;48.400;10.808;2023-01-01T04:51:16;6.50;85.80
38514;DHT22;24282;48.400;10.808;2023-01-01T04:53:42;6.50;85.80
38514;DHT22;24282;48.400;10.808;2023-01-01T04:56:17;6.50;85.80
38514;DHT22;24282;48.400;10.808;2023-01-01T04:58:43;6.50;85.80
38514;DHT22;24282;48.400;10.808;2023-01-01T05:01:24;6.40;85.70
38514;DHT22;24282;48.400;10.808;2023-01-01T05:03:50;6.40;85.90
38514;DHT22;24282;48.400;10.808;2023-01-01T05:06:16;6.40;86.00
38514;DHT22;24282;48.400;10.808;2023-01-01T05:08:45;6.40;86.20
38514;DHT22;24282;48.400;10.808;2023-01-01T05:11:18;6.40;86.50
38514;DHT22;24282;48.400;10.808;2023-01-01T05:13:46;6.40;86.70
38514;DHT22;24282;48.400;10.808;2023-01-01T05:16:15;6.40;86.80
38514;DHT22;24282;48.400;10.808;2023-01-01T05:18:42;6.40;86.90
38514;DHT22;24282;48.400;10.808;2023-01-01T05:21:14;6.40;86.90
38514;DHT22;24282;48.400;10.808;2023-01-01T05:23:41;6.40;86.80
38514;DHT22;24282;48.400;10.808;2023-01-01T05:26:11;6.40;86.80
38514;DHT22;24282;48.400;10.808;2023-01-01T05:28:38;6.40;86.80
38514;DHT22;24282;48.400;10.808;2023-01-01T05:31:06;6.40;86.80
38514;DHT22;24282;48.400;10.808;2023-01-01T05:33:32;6.40;86.80
38514;DHT22;24282;48.400;10.808;2023-01-01T05:35:57;6.40;86.80
38514;DHT22;24282;48.400;10.808;2023-01-01T05:38:23;6.40;86.80
38514;DHT22;24282;48.400;10.808;2023-01-01T05:40:49;6.30;86.70
38514;DHT22;24282;48.400;10.808;2023-01-01T05:43:16;6.40;86.80
38514;DHT22;24282;48.400;10.808;2023-01-01T05:45:42;6.30;86.80
38514;DHT22;24282;48.400;10.808;2023-01-01T05:48:09;6.30;86.80
38514;DHT22;24282;48.400;10.808;2023-01-01T05:50:35;6.30;86.80
38514;DHT22;24282;48.400;10.808;2023-01-01T05:53:01;6.40;86.80
38514;DHT22;24282;48.400;10.808;2023-01-01T05:55:26;6.40;86.80
38514;DHT22;24282;48.400;10.808;2023-01-01T05:57:52;6.30;86.70
38514;DHT22;24282;48.400;10.808;2023-01-01T06:00:18;6.40;86.70
38514;DHT22;24282;48.400;10.808;2023-01-01T06:02:44;6.30;86.70
38514;DHT22;24282;48.400;10.808;2023-01-01T06:05:10;6.40;86.80
38514;DHT22;24282;48.400;10.808;2023-01-01T06:07:35;6.30;86.90
38514;DHT22;24282;48.400;10.808;2023-01-01T06:10:02;6.40;86.90
38514;DHT22;24282;48.400;10.808;2023-01-01T06:12:27;6.40;87.00
38514;DHT22;24282;48.400;10.808;2023-01-01T06:14:53;6.40;87.00
38514;DHT22;24282;48.400;10.808;2023-01-01T06:17:19;6.40;87.00
38514;DHT22;24282;48.400;10.808;2023-01-01T06:19:45;6.40;87.20
38514;DHT22;24282;48.400;10.808;2023-01-01T06:22:10;6.50;87.30
38514;DHT22;24282;48.400;10.808;2023-01-01T06:24:36;6.50;87.30
38514;DHT22;24282;48.400;10.808;2023-01-01T06:27:02;6.50;87.20
38514;DHT22;24282;48.400;10.808;2023-01-01T06:29:28;6.50;87.00
38514;DHT22;24282;48.400;10.808;2023-01-01T06:31:54;6.50;86.90
38514;DHT22;24282;48.400;10.808;2023-01-01T06:34:19;6.40;86.80
38514;DHT22;24282;48.400;10.808;2023-01-01T06:36:45;6.40;86.70
38514;DHT22;24282;48.400;10.808;2023-01-01T06:39:11;6.40;86.60
38514;DHT22;24282;48.400;10.808;2023-01-01T06:41:36;6.40;86.60
38514;DHT22;24282;48.400;10.808;2023-01-01T06:44:02;6.40;86.60
38514;DHT22;24282;48.400;10.808;2023-01-01T06:46:30;6.40;86.60
38514;DHT22;24282;48.400;10.808;2023-01-01T06:48:58;6.30;86.60
38514;DHT22;24282;48.400;10.808;2023-01-01T06:51:28;6.30;86.60
38514;DHT22;24282;48.400;10.808;2023-01-01T06:53:57;6.30;86.60
38514;DHT22;24282;48.400;10.808;2023-01-01T06:56:23;6.30;86.70
38514;DHT22;24282;48.400;10.808;2023-01-01T06:58:49;6.30;86.80
38514;DHT22;24282;48.400;10.808;2023-01-01T07:01:20;6.20;86.80
38514;DHT22;24282;48.400;10.808;2023-01-01T07:03:54;6.20;87.00
38514;DHT22;24282;48.400;10.808;2023-01-01T07:06:20;6.20;87.10
38514;DHT22;24282;48.400;10.808;2023-01-01T07:08:46;6.20;87.10
38514;DHT22;24282;48.400;10.808;2023-01-01T07:11:12;6.30;87.20
38514;DHT22;24282;48.400;10.808;2023-01-01T07:13:38;6.20;87.20
38514;DHT22;24282;48.400;10.808;2023-01-01T07:16:04;6.30;87.20
38514;DHT22;24282;48.400;10.808;2023-01-01T07:18:31;6.20;87.00
38514;DHT22;24282;48.400;10.808;2023-01-01T07:20:59;6.20;87.00
38514;DHT22;24282;48.400;10.808;2023-01-01T07:23:27;6.20;87.00
38514;DHT22;24282;48.400;10.808;2023-01-01T07:25:54;6.20;87.10
38514;DHT22;24282;48.400;10.808;2023-01-01T07:28:21;6.20;87.00
38514;DHT22;24282;48.400;10.808;2023-01-01T07:30:47;6.30;87.00
38514;DHT22;24282;48.400;10.808;2023-01-01T07:33:16;6.20;87.10
38514;DHT22;24282;48.400;10.808;2023-01-01T07:35:42;6.20;87.10
38514;DHT22;24282;48.400;10.808;2023-01-01T07:38:12;6.30;87.10
38514;DHT22;24282;48.400;10.808;2023-01-01T07:40:38;6.30;87.20
38514;DHT22;24282;48.400;10.808;2023-01-01T07:43:05;6.30;87.30
38514;DHT22;24282;48.400;10.808;2023-01-01T07:45:31;6.30;87.30
38514;DHT22;24282;48.400;10.808;2023-01-01T07:47:58;6.30;87.30
38514;DHT22;24282;48.400;10.808;2023-01-01T07:50:26;6.30;87.30
38514;DHT22;24282;48.400;10.808;2023-01-01T07:52:52;6.30;87.30
38514;DHT22;24282;48.400;10.808;2023-01-01T07:55:21;6.30;87.30
38514;DHT22;24282;48.400;10.808;2023-01-01T07:57:47;6.30;87.30
38514;DHT22;24282;48.400;10.808;2023-01-01T08:00:19;6.30;87.40
38514;DHT22;24282;48.400;10.808;2023-01-01T08:02:45;6.30;87.50
38514;DHT22;24282;48.400;10.808;2023-01-01T08:05:11;6.30;87.60
38514;DHT22;24282;48.400;10.808;2023-01-01T08:07:37;6.30;87.60
38514;DHT22;24282;48.400;10.808;2023-01-01T08:10:04;6.40;87.70
38514;DHT22;24282;48.400;10.808;2023-01-01T08:12:30;6.40;87.80
38514;DHT22;24282;48.400;10.808;2023-01-01T08:14:55;6.40;87.90
38514;DHT22;24282;48.400;10.808;2023-01-01T08:17:21;6.40;88.00
38514;DHT22;24282;48.400;10.808;2023-01-01T08:19:47;6.50;87.90
38514;DHT22;24282;48.400;10.808;2023-01-01T08:22:14;6.50;87.90
38514;DHT22;24282;48.400;10.808;2023-01-01T08:24:40;6.50;88.10
38514;DHT22;24282;48.400;10.808;2023-01-01T08:27:06;6.50;88.20
38514;DHT22;24282;48.400;10.808;2023-01-01T08:29:31;6.50;88.20
38514;DHT22;24282;48.400;10.808;2023-01-01T08:31:57;6.60;88.30
38514;DHT22;24282;48.400;10.808;2023-01-01T08:34:23;6.70;88.30
38514;DHT22;24282;48.400;10.808;2023-01-01T08:36:48;6.70;88.30
38514;DHT22;24282;48.400;10.808;2023-01-01T08:39:14;6.70;88.40
38514;DHT22;24282;48.400;10.808;2023-01-01T08:41:42;6.80;88.50
38514;DHT22;24282;48.400;10.808;2023-01-01T08:44:07;6.80;88.70
38514;DHT22;24282;48.400;10.808;2023-01-01T08:46:33;6.90;89.00
38514;DHT22;24282;48.400;10.808;2023-01-01T08:48:59;6.90;89.20
38514;DHT22;24282;48.400;10.808;2023-01-01T08:51:25;7.00;89.30
38514;DHT22;24282;48.400;10.808;2023-01-01T08:53:50;7.00;89.30
38514;DHT22;24282;48.400;10.808;2023-01-01T08:56:16;7.10;89.20
38514;DHT22;24282;48.400;10.808;2023-01-01T08:58:42;7.10;89.20
38514;DHT22;24282;48.400;10.808;2023-01-01T09:01:09;7.20;89.40
38514;DHT22;24282;48.400;10.808;2023-01-01T09:03:35;7.20;90.00
38514;DHT22;24282;48.400;10.808;2023-01-01T09:06:00;7.40;90.30
38514;DHT22;24282;48.400;10.808;2023-01-01T09:08:26;7.40;90.50
38514;DHT22;24282;48.400;10.808;2023-01-01T09:10:56;7.50;90.60
38514;DHT22;24282;48.400;10.808;2023-01-01T09:13:22;7.60;90.80
38514;DHT22;24282;48.400;10.808;2023-01-01T09:15:48;7.70;91.10
38514;DHT22;24282;48.400;10.808;2023-01-01T09:18:13;7.90;91.20
38514;DHT22;24282;48.400;10.808;2023-01-01T09:20:39;8.00;91.20
38514;DHT22;24282;48.400;10.808;2023-01-01T09:23:06;8.10;91.10
38514;DHT22;24282;48.400;10.808;2023-01-01T09:25:33;8.20;91.10
38514;DHT22;24282;48.400;10.808;2023-01-01T09:28:05;8.30;91.30
38514;DHT22;24282;48.400;10.808;2023-01-01T09:30:31;8.50;91.30
38514;DHT22;24282;48.400;10.808;2023-01-01T09:32:57;8.50;91.20
38514;DHT22;24282;48.400;10.808;2023-01-01T09:35:23;8.60;91.20
38514;DHT22;24282;48.400;10.808;2023-01-01T09:37:49;8.80;91.20
38514;DHT22;24282;48.400;10.808;2023-01-01T09:45:59;9.50;89.00
38514;DHT22;24282;48.400;10.808;2023-01-01T09:48:29;9.80;88.10
38514;DHT22;24282;48.400;10.808;2023-01-01T09:50:55;10.00;87.10
38514;DHT22;24282;48.400;10.808;2023-01-01T09:53:36;10.20;85.50
38514;DHT22;24282;48.400;10.808;2023-01-01T09:56:12;10.50;84.20
38514;DHT22;24282;48.400;10.808;2023-01-01T09:58:39;10.80;83.00
38514;DHT22;24282;48.400;10.808;2023-01-01T10:04:01;11.30;80.80
38514;DHT22;24282;48.400;10.808;2023-01-01T10:06:33;11.40;80.80
38514;DHT22;24282;48.400;10.808;2023-01-01T10:12:02;11.70;78.60
38514;DHT22;24282;48.400;10.808;2023-01-01T10:14:35;11.80;78.50
38514;DHT22;24282;48.400;10.808;2023-01-01T10:17:14;11.90;77.90
38514;DHT22;24282;48.400;10.808;2023-01-01T10:19:44;12.00;77.00
38514;DHT22;24282;48.400;10.808;2023-01-01T10:22:19;12.10;77.10
38514;DHT22;24282;48.400;10.808;2023-01-01T10:25:00;12.30;76.50
38514;DHT22;24282;48.400;10.808;2023-01-01T10:27:31;12.30;77.00
38514;DHT22;24282;48.400;10.808;2023-01-01T10:30:01;12.30;76.80
38514;DHT22;24282;48.400;10.808;2023-01-01T10:32:35;12.30;76.90
38514;DHT22;24282;48.400;10.808;2023-01-01T10:35:13;12.40;76.80
38514;DHT22;24282;48.400;10.808;2023-01-01T10:37:40;12.40;76.80
38514;DHT22;24282;48.400;10.808;2023-01-01T10:40:27;12.40;76.80
38514;DHT22;24282;48.400;10.808;2023-01-01T10:42:55;12.40;76.70
38514;DHT22;24282;48.400;10.808;2023-01-01T10:45:33;12.50;76.40
38514;DHT22;24282;48.400;10.808;2023-01-01T10:48:18;12.70;74.20
38514;DHT22;24282;48.400;10.808;2023-01-01T10:51:03;12.90;73.90
38514;DHT22;24282;48.400;10.808;2023-01-01T10:53:31;13.00;74.00
38514;DHT22;24282;48.400;10.808;2023-01-01T10:56:13;13.00;73.50
38514;DHT22;24282;48.400;10.808;2023-01-01T11:01:29;13.10;73.70
38514;DHT22;24282;48.400;10.808;2023-01-01T11:06:37;13.00;74.30
38514;DHT22;24282;48.400;10.808;2023-01-01T11:09:28;13.00;74.20
38514;DHT22;24282;48.400;10.808;2023-01-01T11:11:58;13.00;73.70
38514;DHT22;24282;48.400;10.808;2023-01-01T11:16:52;13.10;73.80
38514;DHT22;24282;48.400;10.808;2023-01-01T11:19:30;13.10;74.00
38514;DHT22;24282;48.400;10.808;2023-01-01T11:21:58;13.10;73.80
38514;DHT22;24282;48.400;10.808;2023-01-01T11:24:25;13.20;73.90
38514;DHT22;24282;48.400;10.808;2023-01-01T11:26:52;13.20;74.70
38514;DHT22;24282;48.400;10.808;2023-01-01T11:29:27;13.20;74.90
38514;DHT22;24282;48.400;10.808;2023-01-01T11:31:53;13.30;74.20
38514;DHT22;24282;48.400;10.808;2023-01-01T11:34:40;13.30;73.70
38514;DHT22;24282;48.400;10.808;2023-01-01T11:39:47;13.60;70.90
38514;DHT22;24282;48.400;10.808;2023-01-01T11:42:19;13.90;69.90
38514;DHT22;24282;48.400;10.808;2023-01-01T11:44:53;14.10;69.30
38514;DHT22;24282;48.400;10.808;2023-01-01T11:47:23;14.30;67.90
38514;DHT22;24282;48.400;10.808;2023-01-01T11:50:33;14.50;67.60
38514;DHT22;24282;48.400;10.808;2023-01-01T11:55:57;14.70;66.80
38514;DHT22;24282;48.400;10.808;2023-01-01T11:58:59;14.90;66.50
38514;DHT22;24282;48.400;10.808;2023-01-01T12:01:34;14.90;67.30
38514;DHT22;24282;48.400;10.808;2023-01-01T12:07:21;14.90;65.90
38514;DHT22;24282;48.400;10.808;2023-01-01T12:10:08;15.00;65.60
38514;DHT22;24282;48.400;10.808;2023-01-01T12:18:20;15.50;63.30
38514;DHT22;24282;48.400;10.808;2023-01-01T12:20:57;15.50;63.90
38514;DHT22;24282;48.400;10.808;2023-01-01T12:23:25;15.40;63.90
38514;DHT22;24282;48.400;10.808;2023-01-01T12:34:19;15.10;64.10
38514;DHT22;24282;48.400;10.808;2023-01-01T12:37:09;15.10;64.50
38514;DHT22;24282;48.400;10.808;2023-01-01T12:43:33;15.00;65.00
38514;DHT22;24282;48.400;10.808;2023-01-01T12:50:48;15.10;65.00
38514;DHT22;24282;48.400;10.808;2023-01-01T13:01:18;15.20;64.30
38514;DHT22;24282;48.400;10.808;2023-01-01T13:03:53;15.30;64.70
38514;DHT22;24282;48.400;10.808;2023-01-01T13:06:31;15.20;64.80
38514;DHT22;24282;48.400;10.808;2023-01-01T13:09:14;15.20;65.10
38514;DHT22;24282;48.400;10.808;2023-01-01T13:11:43;15.20;65.30
38514;DHT22;24282;48.400;10.808;2023-01-01T13:14:10;15.10;64.70
38514;DHT22;24282;48.400;10.808;2023-01-01T13:16:49;15.10;64.60
38514;DHT22;24282;48.400;10.808;2023-01-01T13:19:35;15.10;65.00
38514;DHT22;24282;48.400;10.808;2023-01-01T13:25:03;15.10;64.40
38514;DHT22;24282;48.400;10.808;2023-01-01T13:38:55;14.90;65.70
38514;DHT22;24282;48.400;10.808;2023-01-01T13:41:40;14.80;66.00
38514;DHT22;24282;48.400;10.808;2023-01-01T14:02:53;14.70;66.60
38514;DHT22;24282;48.400;10.808;2023-01-01T14:05:32;14.60;67.60
38514;DHT22;24282;48.400;10.808;2023-01-01T14:08:00;14.40;68.60
38514;DHT22;24282;48.400;10.808;2023-01-01T14:10:34;14.30;69.00
38514;DHT22;24282;48.400;10.808;2023-01-01T14:18:02;14.10;69.80
38514;DHT22;24282;48.400;10.808;2023-01-01T14:20:41;14.10;70.10
38514;DHT22;24282;48.400;10.808;2023-01-01T14:23:11;14.00;70.50
38514;DHT22;24282;48.400;10.808;2023-01-01T14:25:39;13.90;71.00
38514;DHT22;24282;48.400;10.808;2023-01-01T14:28:15;13.90;71.20
38514;DHT22;24282;48.400;10.808;2023-01-01T14:30:43;13.90;71.20
38514;DHT22;24282;48.400;10.808;2023-01-01T14:33:24;13.80;71.10
38514;DHT22;24282;48.400;10.808;2023-01-01T14:35:53;13.70;70.70
38514;DHT22;24282;48.400;10.808;2023-01-01T14:38:34;13.70;70.70
38514;DHT22;24282;48.400;10.808;2023-01-01T14:41:10;13.70;70.70
38514;DHT22;24282;48.400;10.808;2023-01-01T14:43:37;13.70;71.00
38514;DHT22;24282;48.400;10.808;2023-01-01T14:46:07;13.60;71.30
38514;DHT22;24282;48.400;10.808;2023-01-01T14:48:45;13.60;71.80
38514;DHT22;24282;48.400;10.808;2023-01-01T14:51:19;13.40;72.50
38514;DHT22;24282;48.400;10.808;2023-01-01T14:53:46;13.40;73.00
38514;DHT22;24282;48.400;10.808;2023-01-01T14:59:21;13.10;73.80
38514;DHT22;24282;48.400;10.808;2023-01-01T15:02:14;13.10;74.10
38514;DHT22;24282;48.400;10.808;2023-01-01T15:04:40;13.00;74.60
38514;DHT22;24282;48.400;10.808;2023-01-01T15:09:43;12.80;75.50
38514;DHT22;24282;48.400;10.808;2023-01-01T15:12:11;12.70;75.90
38514;DHT22;24282;48.400;10.808;2023-01-01T15:14:40;12.60;76.30
38514;DHT22;24282;48.400;10.808;2023-01-01T15:17:21;12.50;76.60
38514;DHT22;24282;48.400;10.808;2023-01-01T15:20:19;12.50;76.90
38514;DHT22;24282;48.400;10.808;2023-01-01T15:22:45;12.40;77.10
38514;DHT22;24282;48.400;10.808;2023-01-01T15:25:16;12.40;77.10
38514;DHT22;24282;48.400;10.808;2023-01-01T15:27:50;12.30;77.20
38514;DHT22;24282;48.400;10.808;2023-01-01T15:30:22;12.20;77.30
38514;DHT22;24282;48.400;10.808;2023-01-01T15:32:49;12.10;77.50
38514;DHT22;24282;48.400;10.808;2023-01-01T15:35:26;12.10;77.60
38514;DHT22;24282;48.400;10.808;2023-01-01T15:37:57;12.00;77.70
38514;DHT22;24282;48.400;10.808;2023-01-01T15:47:55;11.80;78.30
38514;DHT22;24282;48.400;10.808;2023-01-01T15:50:24;11.70;78.40
38514;DHT22;24282;48.400;10.808;2023-01-01T15:52:59;11.60;78.50
38514;DHT22;24282;48.400;10.808;2023-01-01T15:55:30;11.50;78.80
38514;DHT22;24282;48.400;10.808;2023-01-01T15:57:57;11.40;78.70
38514;DHT22;24282;48.400;10.808;2023-01-01T16:00:26;11.40;78.90
38514;DHT22;24282;48.400;10.808;2023-01-01T16:02:57;11.30;79.50
38514;DHT22;24282;48.400;10.808;2023-01-01T16:05:26;11.30;79.40
38514;DHT22;24282;48.400;10.808;2023-01-01T16:08:02;11.20;79.20
38514;DHT22;24282;48.400;10.808;2023-01-01T16:10:29;11.10;79.30
38514;DHT22;24282;48.400;10.808;2023-01-01T16:12:59;11.00;79.30
38514;DHT22;24282;48.400;10.808;2023-01-01T16:15:25;11.00;79.40
38514;DHT22;24282;48.400;10.808;2023-01-01T16:17:51;11.00;79.40
38514;DHT22;24282;48.400;10.808;2023-01-01T16:20:19;10.90;79.50
38514;DHT22;24282;48.400;10.808;2023-01-01T16:22:46;10.80;79.80
38514;DHT22;24282;48.400;10.808;2023-01-01T16:25:17;10.70;80.10
38514;DHT22;24282;48.400;10.808;2023-01-01T16:27:43;10.70;80.10
38514;DHT22;24282;48.400;10.808;2023-01-01T16:30:10;10.60;80.20
38514;DHT22;24282;48.400;10.808;2023-01-01T16:32:36;10.60;80.40
38514;DHT22;24282;48.400;10.808;2023-01-01T16:35:02;10.60;80.60
38514;DHT22;24282;48.400;10.808;2023-01-01T16:37:31;10.50;80.60
38514;DHT22;24282;48.400;10.808;2023-01-01T16:39:57;10.50;80.70
38514;DHT22;24282;48.400;10.808;2023-01-01T16:42:23;10.50;80.90
38514;DHT22;24282;48.400;10.808;2023-01-01T16:44:49;10.40;81.00
38514;DHT22;24282;48.400;10.808;2023-01-01T16:47:15;10.40;81.00
38514;DHT22;24282;48.400;10.808;2023-01-01T16:49:40;10.30;81.10
38514;DHT22;24282;48.400;10.808;2023-01-01T16:52:06;10.20;81.10
38514;DHT22;24282;48.400;10.808;2023-01-01T16:54:32;10.20;81.30
38514;DHT22;24282;48.400;10.808;2023-01-01T16:56:59;10.10;81.10
38514;DHT22;24282;48.400;10.808;2023-01-01T16:59:24;10.10;81.50
38514;DHT22;24282;48.400;10.808;2023-01-01T17:01:52;10.10;81.60
38514;DHT22;24282;48.400;10.808;2023-01-01T17:04:18;10.00;81.50
38514;DHT22;24282;48.400;10.808;2023-01-01T17:06:43;10.00;81.60
38514;DHT22;24282;48.400;10.808;2023-01-01T17:09:09;9.90;81.60
38514;DHT22;24282;48.400;10.808;2023-01-01T17:11:35;9.90;81.60
38514;DHT22;24282;48.400;10.808;2023-01-01T17:14:01;9.80;81.60
38514;DHT22;24282;48.400;10.808;2023-01-01T17:16:27;9.80;81.60
38514;DHT22;24282;48.400;10.808;2023-01-01T17:18:56;9.70;81.60
38514;DHT22;24282;48.400;10.808;2023-01-01T17:21:22;9.70;81.80
38514;DHT22;24282;48.400;10.808;2023-01-01T17:23:48;9.60;81.90
38514;DHT22;24282;48.400;10.808;2023-01-01T17:26:14;9.60;82.00
38514;DHT22;24282;48.400;10.808;2023-01-01T17:28:42;9.50;81.90
38514;DHT22;24282;48.400;10.808;2023-01-01T17:31:10;9.50;81.90
38514;DHT22;24282;48.400;10.808;2023-01-01T17:33:37;9.40;82.00
38514;DHT22;24282;48.400;10.808;2023-01-01T17:36:04;9.40;82.00
38514;DHT22;24282;48.400;10.808;2023-01-01T17:38:30;9.30;82.00
38514;DHT22;24282;48.400;10.808;2023-01-01T17:41:07;9.30;82.10
38514;DHT22;24282;48.400;10.808;2023-01-01T17:43:38;9.30;82.20
38514;DHT22;24282;48.400;10.808;2023-01-01T17:48:30;9.20;82.50
38514;DHT22;24282;48.400;10.808;2023-01-01T17:50:56;9.10;82.50
38514;DHT22;24282;48.400;10.808;2023-01-01T17:53:22;9.10;82.30
38514;DHT22;24282;48.400;10.808;2023-01-01T17:55:47;9.10;82.50
38514;DHT22;24282;48.400;10.808;2023-01-01T17:58:13;9.10;82.60
38514;DHT22;24282;48.400;10.808;2023-01-01T18:00:39;9.00;82.60